Time;durP1;ratioP1;P1;durP2;ratioP2;P2;SDS_P1;SDS_P2;PMS_P1;PMS_P2;Temp;Humidity;BMP_temperature;BMP_pressure;BME280_temperature;BME280_humidity;BME280_pressure;Samples;Min_cycle;Max_cycle;Signal;HPM_P1;HPM_P2
2021/08/20 00:02:18;;;;;;;;;;;;;;;17.61;80.94;99634.03;4899823;29;19927;-71
2021/08/20 00:04:47;;;;;;;;;;;;;;;17.54;80.90;99632.53;4899576;29;20338;-73
2021/08/20 00:07:21;;;;;;;;;;;;;;;17.36;80.78;99634.72;4899480;29;19992;-71
2021/08/20 00:09:50;;;;;;;;;;;;;;;17.18;81.21;99642.16;4899439;29;19931;-71
2021/08/20 00:12:19;;;;;;;;;;;;;;;17.11;81.27;99644.03;4899640;29;20386;-71
2021/08/20 00:14:47;;;;;;;;;;;;;;;17.07;81.31;99652.75;4899242;29;20003;-71
2021/08/20 00:17:16;;;;;;;;;;;;;;;17.12;81.73;99645.75;4899292;29;19967;-74
2021/08/20 00:19:46;;;;;;;;;;;;;;;17.13;81.45;99644.84;4899815;29;20375;-74
2021/08/20 00:22:15;;;;;;;;;;;;;;;17.05;81.27;99643.38;4899518;29;20410;-72
2021/08/20 00:24:45;;;;;;;;;;;;;;;17.01;81.27;99640.00;4899110;29;20374;-73
2021/08/20 00:27:15;;;;;;;;;;;;;;;16.95;81.30;99639.34;4899091;29;19934;-71
2021/08/20 00:29:43;;;;;;;;;;;;;;;16.89;81.32;99637.78;4899180;29;20306;-71
2021/08/20 00:32:12;;;;;;;;;;;;;;;16.98;81.46;99647.84;4899357;29;19931;-74
2021/08/20 00:34:40;;;;;;;;;;;;;;;17.09;81.14;99642.38;4898897;29;19982;-71
2021/08/20 00:37:09;;;;;;;;;;;;;;;17.18;80.85;99640.41;4898635;29;19971;-71
2021/08/20 00:39:39;;;;;;;;;;;;;;;17.24;80.84;99642.81;4897779;29;19928;-74
2021/08/20 00:42:09;;;;;;;;;;;;;;;17.28;80.52;99640.97;4899588;29;19928;-71
2021/08/20 00:44:38;;;;;;;;;;;;;;;17.21;80.17;99635.16;4898877;29;19935;-74
2021/08/20 00:47:07;;;;;;;;;;;;;;;17.18;80.25;99637.00;4898008;29;19995;-74
2021/08/20 00:49:37;;;;;;;;;;;;;;;17.17;79.84;99643.88;4898832;29;20377;-71
2021/08/20 00:52:06;;;;;;;;;;;;;;;17.13;79.98;99631.94;4867437;29;19967;-72
2021/08/20 00:54:37;;;;;;;;;;;;;;;17.08;79.95;99641.56;4897726;29;20010;-74
2021/08/20 00:57:07;;;;;;;;;;;;;;;17.09;79.97;99638.06;4898822;29;19928;-71
2021/08/20 00:59:37;;;;;;;;;;;;;;;17.11;80.10;99638.03;4897510;29;19966;-74
2021/08/20 01:02:08;;;;;;;;;;;;;;;17.16;79.91;99637.00;4897765;29;20030;-71
2021/08/20 01:04:37;;;;;;;;;;;;;;;17.11;79.81;99644.03;4898703;29;19927;-71
2021/08/20 01:07:06;;;;;;;;;;;;;;;17.10;80.00;99642.38;4898798;29;19991;-74
2021/08/20 01:09:36;;;;;;;;;;;;;;;17.07;80.27;99637.28;4898725;29;19979;-73
2021/08/20 01:12:05;;;;;;;;;;;;;;;17.07;80.14;99641.59;4897532;29;19935;-71
2021/08/20 01:14:38;;;;;;;;;;;;;;;17.10;80.51;99632.03;4897598;29;20326;-74
2021/08/20 01:17:08;;;;;;;;;;;;;;;17.20;80.21;99636.03;4897532;29;19934;-72
2021/08/20 01:19:39;;;;;;;;;;;;;;;17.29;80.01;99635.78;4898787;29;20034;-71
2021/08/20 01:22:08;;;;;;;;;;;;;;;17.39;79.90;99636.38;4897641;29;19931;-71
2021/08/20 01:24:43;;;;;;;;;;;;;;;17.42;79.76;99638.84;4897466;29;19932;-74
2021/08/20 01:27:13;;;;;;;;;;;;;;;17.44;79.43;99640.50;4898618;29;20285;-71
2021/08/20 01:29:43;;;;;;;;;;;;;;;17.44;78.89;99634.50;4897592;29;19931;-74
2021/08/20 01:32:11;;;;;;;;;;;;;;;17.43;79.08;99638.81;4897357;29;19932;-74
2021/08/20 01:34:43;;;;;;;;;;;;;;;17.40;79.19;99636.31;4897485;29;19927;-72
2021/08/20 01:37:12;;;;;;;;;;;;;;;17.43;79.17;99636.25;4898752;29;20382;-74
2021/08/20 01:39:41;;;;;;;;;;;;;;;17.40;79.35;99646.63;4897457;29;19958;-73
2021/08/20 01:42:15;;;;;;;;;;;;;;;17.38;79.53;99638.09;4897386;29;20445;-74
2021/08/20 01:44:43;;;;;;;;;;;;;;;17.37;79.96;99631.25;4897679;29;20351;-71
2021/08/20 01:47:13;;;;;;;;;;;;;;;17.46;80.11;99634.44;4898294;29;19955;-73
2021/08/20 01:49:42;;;;;;;;;;;;;;;17.48;80.05;99643.00;4901572;29;19938;-71
2021/08/20 01:52:13;;;;;;;;;;;;;;;17.47;80.09;99636.16;4901801;29;19935;-71
2021/08/20 01:54:42;;;;;;;;;;;;;;;17.53;80.20;99636.00;4900854;29;19935;-74
2021/08/20 01:57:11;;;;;;;;;;;;;;;17.55;80.10;99639.38;4900749;29;20351;-74
2021/08/20 01:59:42;;;;;;;;;;;;;;;17.48;80.30;99643.00;4869697;29;19949;-72
2021/08/20 02:02:13;;;;;;;;;;;;;;;17.52;80.53;99644.63;4900536;29;20390;-72
2021/08/20 02:04:42;;;;;;;;;;;;;;;17.54;80.63;99642.84;4900476;29;19927;-71
2021/08/20 02:07:10;;;;;;;;;;;;;;;17.55;80.57;99636.78;4900388;29;20379;-74
2021/08/20 02:09:42;;;;;;;;;;;;;;;17.59;80.36;99638.41;4901563;29;19931;-73
2021/08/20 02:12:12;;;;;;;;;;;;;;;17.59;80.57;99630.66;4900362;29;19928;-72
2021/08/20 02:14:53;;;;;;;;;;;;;;;17.63;80.76;99629.66;4900653;29;19979;-71
2021/08/20 02:17:25;;;;;;;;;;;;;;;17.70;80.67;99628.59;4900203;29;19949;-74
2021/08/20 02:19:54;;;;;;;;;;;;;;;17.71;80.47;99632.84;4884801;29;19928;-74
2021/08/20 02:22:25;;;;;;;;;;;;;;;17.76;80.60;99633.56;4900412;29;19928;-72
2021/08/20 02:24:56;;;;;;;;;;;;;;;17.80;80.43;99622.25;4901232;29;19928;-74
2021/08/20 02:27:25;;;;;;;;;;;;;;;17.85;80.22;99633.31;4900323;29;19959;-71
2021/08/20 02:30:00;;;;;;;;;;;;;;;17.81;80.01;99627.38;4900091;29;20406;-73
2021/08/20 02:32:36;;;;;;;;;;;;;;;17.84;79.84;99626.44;4900291;29;20026;-70
2021/08/20 02:35:21;;;;;;;;;;;;;;;17.89;79.73;99627.13;4899967;29;20022;-74
2021/08/20 02:37:51;;;;;;;;;;;;;;;17.91;79.48;99627.94;4899807;29;19982;-72
2021/08/20 02:40:20;;;;;;;;;;;;;;;17.91;79.27;99617.59;4899739;29;19928;-72
2021/08/20 02:42:50;;;;;;;;;;;;;;;17.92;79.06;99622.69;4901096;29;20047;-71
2021/08/20 02:45:22;;;;;;;;;;;;;;;17.90;78.85;99621.09;4899894;29;19939;-71
2021/08/20 02:47:59;;;;;;;;;;;;;;;17.91;78.63;99617.59;4900004;29;19933;-74
2021/08/20 02:50:28;;;;;;;;;;;;;;;17.86;78.73;99617.75;4899539;29;19934;-74
2021/08/20 02:52:56;;;;;;;;;;;;;;;17.83;78.48;99624.72;4899507;29;20014;-73
2021/08/20 02:55:30;;;;;;;;;;;;;;;17.83;78.57;99624.72;4900786;29;19955;-73
2021/08/20 02:58:00;;;;;;;;;;;;;;;17.83;78.51;99624.72;4899409;29;19927;-73
2021/08/20 03:00:35;;;;;;;;;;;;;;;17.85;78.47;99620.38;4899149;29;19927;-72
2021/08/20 03:03:05;;;;;;;;;;;;;;;17.87;78.65;99621.19;4899473;29;19928;-72
2021/08/20 03:05:34;;;;;;;;;;;;;;;17.87;78.26;99621.19;4899416;29;19959;-72
2021/08/20 03:08:23;;;;;;;;;;;;;;;17.86;78.38;99629.81;4886775;29;19932;-71
2021/08/20 03:10:52;;;;;;;;;;;;;;;17.87;78.32;99631.50;4899598;29;19992;-71
2021/08/20 03:13:21;;;;;;;;;;;;;;;17.90;78.33;99621.09;4899261;29;20018;-71
2021/08/20 03:15:57;;;;;;;;;;;;;;;17.89;78.51;99624.56;4899347;29;19976;-74
2021/08/20 03:18:28;;;;;;;;;;;;;;;17.87;78.58;99621.19;4853039;29;19933;-74
2021/08/20 03:20:59;;;;;;;;;;;;;;;17.87;78.57;99626.34;4884191;29;19928;-71
2021/08/20 03:23:50;;;;;;;;;;;;;;;17.87;78.22;99622.03;5112890;27;19962;-74
2021/08/20 03:26:35;;;;;;;;;;;;;;;17.87;78.26;99624.63;5112922;27;19916;-73
2021/08/20 03:29:18;;;;;;;;;;;;;;;17.89;78.16;99632.31;5112885;27;19912;-72
2021/08/20 03:32:20;;;;;;;;;;;;;;;17.86;77.84;99629.81;5112901;27;20312;-74
2021/08/20 03:35:04;;;;;;;;;;;;;;;17.85;78.00;99628.13;5119409;27;2142697;-70
2021/08/20 03:37:47;;;;;;;;;;;;;;;17.84;77.81;99627.28;5112903;27;19913;-72
2021/08/20 03:40:33;;;;;;;;;;;;;;;17.86;77.70;99629.81;5112658;27;19916;-71
2021/08/20 03:43:18;;;;;;;;;;;;;;;17.87;77.73;99626.34;5112925;27;20350;-72
2021/08/20 03:46:09;;;;;;;;;;;;;;;17.92;77.87;99619.31;5112883;27;19961;-72
2021/08/20 03:48:54;;;;;;;;;;;;;;;17.92;77.84;99624.47;5112884;27;19981;-70
2021/08/20 03:51:37;;;;;;;;;;;;;;;17.93;77.87;99631.31;5112389;27;19912;-73
2021/08/20 03:54:29;;;;;;;;;;;;;;;17.94;77.81;99627.84;5112889;27;20345;-70
2021/08/20 03:57:10;;;;;;;;;;;;;;;17.92;77.69;99635.63;5119082;27;2151007;-73
2021/08/20 03:59:52;;;;;;;;;;;;;;;17.94;77.56;99648.50;5112892;27;19912;-75
2021/08/20 04:02:35;;;;;;;;;;;;;;;17.94;77.44;99644.19;5112107;27;20357;-70
2021/08/20 04:05:17;;;;;;;;;;;;;;;17.94;77.26;99643.34;5112857;27;19912;-71
2021/08/20 04:08:06;;;;;;;;;;;;;;;17.89;77.25;99650.38;5112849;27;19912;-74
2021/08/20 04:11:12;;;;;;;;;;;;;;;17.87;77.73;99644.41;5112878;27;19965;-69
2021/08/20 04:14:14;;;;;;;;;;;;;;;17.85;77.54;99643.63;5112706;27;19916;-71
2021/08/20 04:16:56;;;;;;;;;;;;;;;17.85;77.64;99643.63;5112114;27;20319;-71
2021/08/20 04:19:43;;;;;;;;;;;;;;;17.89;77.68;99642.63;5112874;27;20415;-71
2021/08/20 04:22:26;;;;;;;;;;;;;;;17.93;77.87;99645.06;5112870;27;19962;-74
2021/08/20 04:25:09;;;;;;;;;;;;;;;17.94;77.86;99645.91;5112949;27;19913;-71
2021/08/20 04:28:01;;;;;;;;;;;;;;;17.94;77.78;99636.44;5112830;27;19961;-72
2021/08/20 04:30:54;;;;;;;;;;;;;;;17.96;77.70;99644.13;5112888;27;19915;-74
2021/08/20 04:33:56;;;;;;;;;;;;;;;18.02;77.99;99646.50;5112881;27;20307;-74
2021/08/20 04:37:00;;;;;;;;;;;;;;;18.06;78.06;99645.53;5112887;27;19912;-74
2021/08/20 04:39:52;;;;;;;;;;;;;;;18.04;77.64;99647.31;5112869;27;19957;-70
2021/08/20 04:42:55;;;;;;;;;;;;;;;18.03;77.41;99648.22;5112046;27;19912;-71
2021/08/20 04:45:57;;;;;;;;;;;;;;;18.07;77.42;99649.78;5112940;27;19962;-74
2021/08/20 04:48:49;;;;;;;;;;;;;;;18.14;77.33;99650.47;5112838;27;19961;-72
2021/08/20 04:51:52;;;;;;;;;;;;;;;18.12;77.47;99645.31;5112212;27;19916;-73
2021/08/20 04:54:41;;;;;;;;;;;;;;;18.21;77.59;99647.59;5112903;27;19961;-72
2021/08/20 04:57:26;;;;;;;;;;;;;;;18.22;77.50;99648.47;5112898;27;19912;-71
2021/08/20 05:00:17;;;;;;;;;;;;;;;18.26;77.05;99644.91;5174580;27;19930;-73
2021/08/20 05:03:09;;;;;;;;;;;;;;;18.28;76.96;99649.13;5174635;27;19987;-72
2021/08/20 05:06:12;;;;;;;;;;;;;;;18.34;76.80;99654.09;5128044;27;19927;-72
2021/08/20 05:09:06;;;;;;;;;;;;;;;18.40;76.57;99658.22;5174647;27;19965;-74
2021/08/20 05:11:58;;;;;;;;;;;;;;;18.43;76.60;99653.78;5174258;27;19918;-75
2021/08/20 05:14:38;;;;;;;;;;;;;;;18.47;76.79;99655.41;4793204;27;11734263;-74
2021/08/20 05:17:29;;;;;;;;;;;;;;;18.47;76.46;99655.41;5174589;27;20273;-71
2021/08/20 05:20:24;;;;;;;;;;;;;;;18.48;76.21;99657.09;5133645;27;19908;-73
2021/08/20 05:23:26;;;;;;;;;;;;;;;18.52;76.38;99653.50;5127940;27;19920;-75
2021/08/20 05:26:28;;;;;;;;;;;;;;;18.57;76.30;99659.34;5127833;27;19927;-72
2021/08/20 05:29:22;;;;;;;;;;;;;;;18.60;76.30;99656.69;5133314;27;20288;-72
2021/08/20 05:32:05;;;;;;;;;;;;;;;18.66;76.04;99669.41;5133034;27;19915;-71
2021/08/20 05:34:49;;;;;;;;;;;;;;;18.68;75.79;99667.63;5112808;27;19973;-72
2021/08/20 05:37:31;;;;;;;;;;;;;;;18.70;75.97;99673.56;5112944;27;19912;-72
2021/08/20 05:40:13;;;;;;;;;;;;;;;18.70;75.56;99672.72;5113030;27;19912;-72
2021/08/20 05:42:55;;;;;;;;;;;;;;;18.70;75.51;99678.75;5112392;27;19957;-75
2021/08/20 05:45:37;;;;;;;;;;;;;;;18.71;75.27;99671.84;5112841;27;19916;-72
2021/08/20 05:48:20;;;;;;;;;;;;;;;18.76;75.14;99666.50;5112896;27;19961;-77
2021/08/20 05:51:01;;;;;;;;;;;;;;;18.76;75.19;99667.38;5112819;27;19916;-76
2021/08/20 05:53:41;;;;;;;;;;;;;;;18.81;75.12;99669.78;5120182;27;2121318;-72
2021/08/20 05:56:22;;;;;;;;;;;;;;;18.85;74.80;99671.38;5112774;27;19977;-76
2021/08/20 05:59:08;;;;;;;;;;;;;;;18.89;74.73;99672.94;5112850;27;19916;-76
2021/08/20 06:01:52;;;;;;;;;;;;;;;18.97;74.77;99683.88;5112823;27;19912;-76
2021/08/20 06:04:38;;;;;;;;;;;;;;;19.01;74.78;99678.53;5112873;27;20350;-75
2021/08/20 06:07:21;;;;;;;;;;;;;;;19.08;74.90;99673.97;5112858;27;19977;-76
2021/08/20 06:10:09;;;;;;;;;;;;;;;19.18;74.55;99680.53;5113663;27;19912;-77
2021/08/20 06:12:55;;;;;;;;;;;;;;;19.22;74.06;99682.09;5133355;27;19912;-76
2021/08/20 06:15:38;;;;;;;;;;;;;;;19.20;73.43;99677.00;5133071;27;19964;-72
2021/08/20 06:18:21;;;;;;;;;;;;;;;19.27;73.33;99680.19;5112852;27;19917;-71
2021/08/20 06:21:02;;;;;;;;;;;;;;;19.31;72.91;99679.22;5112185;27;19916;-72
2021/08/20 06:23:46;;;;;;;;;;;;;;;19.37;72.46;99676.41;5112931;27;19916;-73
2021/08/20 06:26:35;;;;;;;;;;;;;;;19.39;72.12;99679.78;5133418;27;19957;-72
2021/08/20 06:29:20;;;;;;;;;;;;;;;19.41;72.31;99685.78;5133456;27;19911;-77
2021/08/20 06:32:04;;;;;;;;;;;;;;;19.50;71.99;99682.84;5112981;27;19916;-75
2021/08/20 06:34:50;;;;;;;;;;;;;;;19.58;71.82;99680.78;5112965;27;19961;-72
2021/08/20 06:37:34;;;;;;;;;;;;;;;19.62;71.74;99687.56;5112468;27;20365;-75
2021/08/20 06:40:17;;;;;;;;;;;;;;;19.70;71.47;99693.28;5117985;27;2176133;-75
2021/08/20 06:42:59;;;;;;;;;;;;;;;19.72;71.46;99688.91;5133394;27;19957;-74
2021/08/20 06:45:40;;;;;;;;;;;;;;;19.74;71.33;99696.63;5117890;27;2184184;-74
2021/08/20 06:48:25;;;;;;;;;;;;;;;19.80;71.28;99697.22;5112873;27;19973;-75
2021/08/20 06:51:15;;;;;;;;;;;;;;;19.92;70.95;99691.56;5091674;28;19916;-75
2021/08/20 06:53:55;;;;;;;;;;;;;;;20.05;70.73;99692.81;5112764;27;19912;-75
2021/08/20 06:56:37;;;;;;;;;;;;;;;20.14;70.57;99695.91;5112899;27;19965;-75
2021/08/20 06:59:18;;;;;;;;;;;;;;;20.17;70.42;99693.22;5112430;27;19916;-73
2021/08/20 07:02:01;;;;;;;;;;;;;;;20.26;70.35;99690.28;5112832;27;19958;-72
2021/08/20 07:04:43;;;;;;;;;;;;;;;20.32;69.77;99690.06;5112757;27;19916;-74
2021/08/20 07:07:29;;;;;;;;;;;;;;;20.40;69.47;99693.16;5112562;27;19912;-76
2021/08/20 07:10:13;;;;;;;;;;;;;;;20.46;69.10;99682.56;5117471;27;2197927;-76
2021/08/20 07:12:55;;;;;;;;;;;;;;;20.53;68.78;99694.38;5111949;27;19962;-77
2021/08/20 07:15:38;;;;;;;;;;;;;;;20.59;68.84;99691.50;5112141;27;19985;-76
2021/08/20 07:18:20;;;;;;;;;;;;;;;20.68;68.85;99691.16;5112658;27;19916;-73
2021/08/20 07:21:01;;;;;;;;;;;;;;;20.79;68.66;99701.91;5112885;27;19965;-76
2021/08/20 07:23:42;;;;;;;;;;;;;;;20.88;68.28;99691.13;5112830;27;19916;-73
2021/08/20 07:26:23;;;;;;;;;;;;;;;21.02;68.09;99691.38;5112775;27;19969;-74
2021/08/20 07:29:05;;;;;;;;;;;;;;;21.11;67.62;99693.63;5112798;27;20422;-77
2021/08/20 07:31:48;;;;;;;;;;;;;;;21.23;67.51;99690.50;5112827;27;19920;-74
2021/08/20 07:34:31;;;;;;;;;;;;;;;21.32;66.92;99690.09;5112850;27;19916;-77
2021/08/20 07:37:14;;;;;;;;;;;;;;;21.39;66.98;99682.88;5091847;27;19917;-76
2021/08/20 07:39:57;;;;;;;;;;;;;;;21.47;66.64;99690.31;5112871;27;19978;-74
2021/08/20 07:42:39;;;;;;;;;;;;;;;21.60;66.56;99688.84;5112947;27;19912;-78
2021/08/20 07:45:22;;;;;;;;;;;;;;;21.72;67.07;99696.06;5132999;27;19916;-77
2021/08/20 07:48:03;;;;;;;;;;;;;;;21.86;66.80;99691.13;5112799;27;19917;-74
2021/08/20 07:50:47;;;;;;;;;;;;;;;21.88;66.19;99686.72;5112150;27;19962;-74
2021/08/20 07:53:29;;;;;;;;;;;;;;;21.88;65.71;99697.09;5112823;27;20345;-75
2021/08/20 07:56:10;;;;;;;;;;;;;;;21.93;65.77;99687.34;5112755;27;20311;-78
2021/08/20 07:58:50;;;;;;;;;;;;;;;22.06;65.60;99691.03;5039544;27;4352552;-77
2021/08/20 08:01:31;;;;;;;;;;;;;;;22.19;65.16;99691.31;5112880;27;20399;-77
2021/08/20 08:04:26;;;;;;;;;;;;;;;22.24;64.88;99691.94;5093174;27;19920;-78
2021/08/20 08:07:22;;;;;;;;;;;;;;;22.30;64.43;99691.63;5133697;27;20376;-78
2021/08/20 08:10:19;;;;;;;;;;;;;;;22.36;64.15;99693.94;5134558;27;19920;-78
2021/08/20 08:13:10;;;;;;;;;;;;;;;22.45;63.95;99691.72;5174490;27;20394;-78
2021/08/20 08:16:05;;;;;;;;;;;;;;;22.57;63.40;99696.34;5133300;27;19923;-77
2021/08/20 08:19:01;;;;;;;;;;;;;;;22.66;63.31;99695.06;5134338;27;19916;-78
2021/08/20 08:22:00;;;;;;;;;;;;;;;22.84;63.29;99701.13;5137256;27;20344;-78
2021/08/20 08:24:57;;;;;;;;;;;;;;;23.17;63.64;99700.22;5176939;27;19918;-79
2021/08/20 08:27:56;;;;;;;;;;;;;;;23.03;62.92;99701.88;5176089;27;19915;-78
2021/08/20 08:30:56;;;;;;;;;;;;;;;23.42;62.08;99705.00;5135520;27;20378;-78
2021/08/20 08:33:54;;;;;;;;;;;;;;;23.78;61.17;99705.66;5178651;27;19930;-79
2021/08/20 08:36:35;;;;;;;;;;;;;;;24.13;60.25;99695.94;4641580;27;15837688;-76
2021/08/20 08:39:41;;;;;;;;;;;;;;;24.36;59.46;99699.84;5155812;27;20375;-78
2021/08/20 08:42:47;;;;;;;;;;;;;;;24.88;58.43;99698.59;5136850;27;19922;-78
2021/08/20 08:45:48;;;;;;;;;;;;;;;25.11;58.10;99705.88;5136977;27;19969;-77
2021/08/20 08:48:38;;;;;;;;;;;;;;;25.06;58.74;99701.84;5114312;27;19966;-78
2021/08/20 08:51:21;;;;;;;;;;;;;;;24.79;58.27;99708.69;5116734;27;19934;-78
2021/08/20 08:54:12;;;;;;;;;;;;;;;24.82;57.51;99713.75;5139152;27;19957;-78
2021/08/20 08:57:00;;;;;;;;;;;;;;;24.81;57.04;99710.28;5116067;27;19912;-78
2021/08/20 08:59:43;;;;;;;;;;;;;;;24.98;56.74;99715.38;5116670;28;19950;-78
2021/08/20 09:02:37;;;;;;;;;;;;;;;25.15;57.09;99703.91;5098292;27;19908;-78
2021/08/20 09:05:20;;;;;;;;;;;;;;;25.16;56.91;99714.28;5135578;27;19915;-78
2021/08/20 09:08:11;;;;;;;;;;;;;;;24.92;56.40;99715.75;5113983;27;20296;-81
2021/08/20 09:10:56;;;;;;;;;;;;;;;24.95;55.93;99714.72;5136011;27;19911;-78
2021/08/20 09:13:44;;;;;;;;;;;;;;;25.00;55.40;99715.28;5070933;28;19913;-77
2021/08/20 09:16:34;;;;;;;;;;;;;;;25.03;54.87;99715.94;5113424;27;19916;-77
2021/08/20 09:19:22;;;;;;;;;;;;;;;24.81;54.91;99710.28;5136565;27;19961;-78
2021/08/20 09:22:12;;;;;;;;;;;;;;;25.00;55.57;99713.50;5117215;27;19934;-78
2021/08/20 09:24:58;;;;;;;;;;;;;;;25.15;54.79;99716.97;5115708;27;19958;-77
2021/08/20 09:27:43;;;;;;;;;;;;;;;24.93;53.68;99709.56;5095395;27;19912;-77
2021/08/20 09:30:30;;;;;;;;;;;;;;;24.90;53.49;99711.53;5114185;27;19916;-77
2021/08/20 09:33:17;;;;;;;;;;;;;;;24.88;53.69;99716.84;5115027;27;19917;-78
2021/08/20 09:36:00;;;;;;;;;;;;;;;24.98;54.15;99704.09;5113711;27;19916;-79
2021/08/20 09:38:43;;;;;;;;;;;;;;;25.10;54.47;99709.41;5113523;27;19961;-78
2021/08/20 09:41:31;;;;;;;;;;;;;;;25.28;53.98;99708.31;5114228;27;19961;-75
2021/08/20 09:44:28;;;;;;;;;;;;;;;25.33;54.61;99701.97;5117598;27;20346;-78
2021/08/20 09:47:12;;;;;;;;;;;;;;;25.21;54.09;99699.19;5114574;27;19958;-78
2021/08/20 09:49:59;;;;;;;;;;;;;;;25.62;54.13;99693.22;5135928;27;19912;-78
2021/08/20 09:52:42;;;;;;;;;;;;;;;25.90;52.92;99685.31;5113865;27;19912;-77
2021/08/20 09:55:45;;;;;;;;;;;;;;;26.17;52.19;99688.81;5134260;27;19912;-78
2021/08/20 09:58:34;;;;;;;;;;;;;;;26.66;52.01;99696.09;5137349;27;19942;-79
2021/08/20 10:01:21;;;;;;;;;;;;;;;26.78;50.72;99680.41;5115631;27;19916;-81
2021/08/20 10:04:06;;;;;;;;;;;;;;;26.79;50.35;99681.25;4968229;27;2239979;-79
2021/08/20 10:07:06;;;;;;;;;;;;;;;26.79;50.37;99683.88;5137488;27;19964;-78
2021/08/20 10:09:53;;;;;;;;;;;;;;;27.05;49.66;99672.47;5134652;27;19911;-78
2021/08/20 10:12:42;;;;;;;;;;;;;;;26.89;49.68;99672.69;5135681;27;19916;-78
2021/08/20 10:15:28;;;;;;;;;;;;;;;26.71;49.97;99673.03;5134162;27;19961;-77
2021/08/20 10:17:57;;;;;;;;;;;;;;;26.62;49.44;99671.88;5133614;27;19930;-77
2021/08/20 10:20:30;;;;;;;;;;;;;;;26.34;50.23;99670.25;5133101;27;19970;-77
2021/08/20 10:22:59;;;;;;;;;;;;;;;25.79;50.38;99672.09;5133990;28;19930;-78
2021/08/20 10:25:28;;;;;;;;;;;;;;;26.10;50.36;99671.81;5133089;27;20014;-77
2021/08/20 10:27:58;;;;;;;;;;;;;;;26.79;49.87;99666.38;5132886;27;19924;-77
2021/08/20 10:30:32;;;;;;;;;;;;;;;27.01;49.87;99663.16;5133890;27;19924;-76
2021/08/20 10:33:06;;;;;;;;;;;;;;;26.45;49.54;99657.28;5133674;27;19923;-76
2021/08/20 10:35:45;;;;;;;;;;;;;;;26.49;50.49;99658.75;5132757;28;19927;-76
2021/08/20 10:38:27;;;;;;;;;;;;;;;26.78;50.14;99653.41;5132313;27;19927;-78
2021/08/20 10:41:11;;;;;;;;;;;;;;;26.80;49.13;99662.00;5131999;28;20002;-77
2021/08/20 10:44:02;;;;;;;;;;;;;;;26.53;49.39;99655.00;5112909;27;20350;-77
2021/08/20 10:46:54;;;;;;;;;;;;;;;26.21;49.43;99651.03;5133605;27;19912;-77
2021/08/20 10:49:40;;;;;;;;;;;;;;;26.27;49.20;99645.41;5113503;27;19912;-77
2021/08/20 10:52:26;;;;;;;;;;;;;;;27.20;48.81;99647.84;5112862;27;20324;-79
2021/08/20 10:55:14;;;;;;;;;;;;;;;27.59;47.75;99645.09;5112691;27;19970;-78
2021/08/20 10:58:05;;;;;;;;;;;;;;;28.05;48.17;99644.41;5005311;27;2113067;-78
2021/08/20 11:00:56;;;;;;;;;;;;;;;28.15;46.77;99640.13;5133263;27;19961;-75
2021/08/20 11:03:43;;;;;;;;;;;;;;;28.25;46.11;99636.75;5112893;27;19965;-75
2021/08/20 11:06:41;;;;;;;;;;;;;;;28.51;45.32;99640.88;5112876;27;20365;-76
2021/08/20 11:09:30;;;;;;;;;;;;;;;28.04;46.49;99640.94;5134547;27;19938;-76
2021/08/20 11:12:29;;;;;;;;;;;;;;;27.08;48.25;99644.28;5133899;27;19965;-77
2021/08/20 11:15:31;;;;;;;;;;;;;;;26.27;49.22;99648.03;5133122;27;19972;-77
2021/08/20 11:18:39;;;;;;;;;;;;;;;25.84;51.27;99655.16;5092734;27;19917;-79
2021/08/20 11:21:34;;;;;;;;;;;;;;;25.50;52.25;99645.16;5113003;27;19961;-77
2021/08/20 11:24:21;;;;;;;;;;;;;;;25.26;53.02;99642.25;5093820;27;20384;-76
2021/08/20 11:27:14;;;;;;;;;;;;;;;25.14;53.55;99650.00;5134356;27;19915;-77
2021/08/20 11:30:02;;;;;;;;;;;;;;;25.12;54.06;99644.84;5112866;27;19912;-76
2021/08/20 11:32:37;;;;;;;;;;;;;;;25.00;53.41;99650.81;5112286;28;20288;-78
2021/08/20 11:35:06;;;;;;;;;;;;;;;25.00;53.77;99653.41;5112212;28;19928;-78
2021/08/20 11:37:51;;;;;;;;;;;;;;;25.09;53.96;99658.13;5113055;28;20320;-78
2021/08/20 11:40:24;;;;;;;;;;;;;;;25.14;54.47;99653.44;5112374;28;19931;-78
2021/08/20 11:43:07;;;;;;;;;;;;;;;24.99;55.39;99648.28;5094777;28;20022;-75
2021/08/20 11:45:41;;;;;;;;;;;;;;;24.91;55.51;99650.53;5112743;28;19932;-77
2021/08/20 11:48:14;;;;;;;;;;;;;;;24.98;56.00;99652.69;5112110;28;19924;-77
2021/08/20 11:50:47;;;;;;;;;;;;;;;25.04;55.46;99649.72;5111976;28;19973;-76
2021/08/20 11:53:24;;;;;;;;;;;;;;;25.09;55.12;99645.06;5111772;28;19924;-78
2021/08/20 11:56:17;;;;;;;;;;;;;;;24.97;55.11;99651.00;5146150;27;20019;-76
2021/08/20 11:58:49;;;;;;;;;;;;;;;24.86;55.03;99648.19;5104725;28;19977;-77
2021/08/20 12:01:27;;;;;;;;;;;;;;;25.00;54.97;99637.75;5110128;28;19928;-77
2021/08/20 12:03:58;;;;;;;;;;;;;;;25.15;54.40;99636.81;5111751;28;19939;-77
2021/08/20 12:06:28;;;;;;;;;;;;;;;25.09;54.15;99639.81;5112408;28;19928;-78
2021/08/20 12:09:08;;;;;;;;;;;;;;;24.96;53.95;99632.81;5111882;28;19970;-77
2021/08/20 12:11:37;;;;;;;;;;;;;;;24.83;54.17;99640.56;5111306;28;20421;-77
2021/08/20 12:14:05;;;;;;;;;;;;;;;24.79;54.56;99641.66;5111987;28;19924;-77
2021/08/20 12:16:40;;;;;;;;;;;;;;;24.85;54.76;99646.53;5112028;28;19924;-76
2021/08/20 12:19:27;;;;;;;;;;;;;;;24.97;54.25;99637.97;5111097;28;19924;-76
2021/08/20 12:21:56;;;;;;;;;;;;;;;25.12;54.24;99633.56;5111000;28;19928;-77
2021/08/20 12:24:32;;;;;;;;;;;;;;;25.17;54.08;99642.78;5111495;28;19924;-78
2021/08/20 12:27:12;;;;;;;;;;;;;;;25.08;53.57;99632.06;5110018;28;19975;-77
2021/08/20 12:29:41;;;;;;;;;;;;;;;25.03;53.59;99636.72;5143659;27;19924;-76
2021/08/20 12:32:20;;;;;;;;;;;;;;;25.14;53.36;99631.72;5110527;28;20297;-77
2021/08/20 12:34:56;;;;;;;;;;;;;;;25.25;53.48;99637.94;5110438;28;19924;-77
2021/08/20 12:37:25;;;;;;;;;;;;;;;25.19;54.26;99635.69;5110845;28;19931;-78
2021/08/20 12:40:02;;;;;;;;;;;;;;;25.26;54.75;99639.63;5104668;28;19931;-77
2021/08/20 12:42:32;;;;;;;;;;;;;;;25.38;54.46;99634.59;5097052;28;19924;-77
2021/08/20 12:45:08;;;;;;;;;;;;;;;25.49;54.17;99632.16;5096886;28;19931;-77
2021/08/20 12:47:38;;;;;;;;;;;;;;;25.47;53.63;99631.41;5097275;28;20357;-77
2021/08/20 12:50:08;;;;;;;;;;;;;;;25.44;52.93;99632.44;5096934;28;19924;-75
2021/08/20 12:52:38;;;;;;;;;;;;;;;26.02;51.42;99626.97;5097313;28;19994;-77
2021/08/20 12:55:17;;;;;;;;;;;;;;;26.90;49.76;99632.44;5096747;28;19924;-77
2021/08/20 12:57:48;;;;;;;;;;;;;;;27.69;48.56;99622.47;5129472;27;20010;-77
2021/08/20 13:00:22;;;;;;;;;;;;;;;28.20;46.60;99624.91;5096653;28;19924;-76
2021/08/20 13:02:52;;;;;;;;;;;;;;;28.23;45.11;99624.69;5096856;28;19931;-75
2021/08/20 13:05:37;;;;;;;;;;;;;;;28.16;44.82;99626.94;5096512;28;20385;-76
2021/08/20 13:08:06;;;;;;;;;;;;;;;28.26;45.60;99616.56;5096787;28;19970;-75
2021/08/20 13:10:35;;;;;;;;;;;;;;;28.48;45.33;99612.22;5096405;28;19981;-77
2021/08/20 13:13:04;;;;;;;;;;;;;;;28.07;48.22;99616.25;5096315;28;20019;-76
2021/08/20 13:15:33;;;;;;;;;;;;;;;27.44;49.24;99611.22;5096327;28;20018;-75
2021/08/20 13:18:04;;;;;;;;;;;;;;;27.37;48.38;99615.19;5096264;28;19924;-76
2021/08/20 13:20:32;;;;;;;;;;;;;;;27.14;50.88;99614.16;5096289;28;20390;-77
2021/08/20 13:23:01;;;;;;;;;;;;;;;26.91;50.04;99623.63;5096494;28;19931;-75
2021/08/20 13:25:30;;;;;;;;;;;;;;;26.68;49.33;99620.88;5096387;28;19924;-76
2021/08/20 13:27:59;;;;;;;;;;;;;;;26.44;50.06;99611.09;5094627;28;20323;-77
2021/08/20 13:30:29;;;;;;;;;;;;;;;26.45;49.79;99620.63;5095899;28;19931;-75
2021/08/20 13:32:57;;;;;;;;;;;;;;;27.16;48.13;99613.13;5095927;28;19930;-76
2021/08/20 13:35:28;;;;;;;;;;;;;;;27.68;46.78;99610.31;5095880;28;20014;-76
2021/08/20 13:37:56;;;;;;;;;;;;;;;27.98;45.94;99607.22;5094811;28;19954;-76
2021/08/20 13:40:29;;;;;;;;;;;;;;;27.85;46.21;99607.31;5095786;28;19924;-76
2021/08/20 13:42:58;;;;;;;;;;;;;;;27.61;47.08;99603.00;5096140;28;19952;-76
2021/08/20 13:45:27;;;;;;;;;;;;;;;27.77;46.21;99599.16;5095293;28;20308;-77
2021/08/20 13:47:55;;;;;;;;;;;;;;;27.84;46.52;99599.53;5095631;28;20019;-76
2021/08/20 13:50:24;;;;;;;;;;;;;;;28.10;45.93;99601.09;5095608;28;19931;-77
2021/08/20 13:52:54;;;;;;;;;;;;;;;27.61;46.04;99593.34;5094681;28;19938;-76
2021/08/20 13:55:23;;;;;;;;;;;;;;;27.26;46.40;99592.34;5095637;28;19924;-76